createdAt,value
2022-10-05T05:52:30.686Z,99612.59
2022-10-05T05:54:38.485Z,99626.75
2022-10-05T05:56:14.977Z,99625.31
2022-10-05T05:57:50.868Z,99618.28
2022-10-05T05:59:26.101Z,99613.47
2022-10-05T06:01:03.774Z,99604.31
2022-10-05T06:02:39.518Z,99606.53
2022-10-05T06:04:18.845Z,99608.03
2022-10-05T06:06:01.800Z,99605.91
2022-10-05T06:07:33.408Z,99604.69
2022-10-05T06:09:12.482Z,99604.69
2022-10-05T06:10:51.345Z,99601.69
2022-10-05T06:12:25.084Z,99608.31
2022-10-05T06:14:03.697Z,99609.28
2022-10-05T06:15:38.725Z,99610.50
2022-10-05T06:17:19.076Z,99611.13
2022-10-05T06:19:09.171Z,99607.16
2022-10-05T06:20:45.313Z,99616.22
2022-10-05T06:22:22.542Z,99613.44
2022-10-05T06:24:29.961Z,99617.09
2022-10-05T06:26:08.347Z,99612.03
2022-10-05T06:28:03.954Z,99619.19
2022-10-05T06:30:01.802Z,99611.16
2022-10-05T06:32:12.333Z,99620.69
2022-10-05T06:33:54.570Z,99625.63
2022-10-05T06:35:54.072Z,99622.94
2022-10-05T06:37:46.702Z,99616.09
2022-10-05T06:39:42.467Z,99615.22
2022-10-05T06:41:26.852Z,99611.38
2022-10-05T06:43:32.901Z,99607.66
2022-10-05T06:45:42.589Z,99601.84
2022-10-05T06:47:52.878Z,99615.97
2022-10-05T06:49:46.135Z,99614.47
2022-10-05T06:51:46.891Z,99622.06
2022-10-05T06:53:35.718Z,99611.78
2022-10-05T06:55:28.962Z,99608.69
2022-10-05T06:57:37.613Z,99612.53
2022-10-05T06:59:28.179Z,99612.53
2022-10-05T07:01:02.961Z,99624.00
2022-10-05T07:02:43.107Z,99623.25
2022-10-05T07:04:33.339Z,99626.66
2022-10-05T07:06:10.410Z,99633.50
2022-10-05T07:07:58.039Z,99629.34
2022-10-05T07:09:38.212Z,99624.75
2022-10-05T07:11:28.127Z,99624.75
2022-10-05T07:13:21.873Z,99621.31
2022-10-05T07:15:04.984Z,99620.56
2022-10-05T07:17:04.135Z,99626.66
2022-10-05T07:18:48.099Z,99627.84
2022-10-05T07:20:32.728Z,99631.25
2022-10-05T07:22:35.451Z,99624.44
2022-10-05T07:24:34.471Z,99627.13
2022-10-05T07:26:12.759Z,99627.13
2022-10-05T07:28:05.761Z,99630.22
2022-10-05T07:30:00.404Z,99629.03
2022-10-05T07:31:50.743Z,99632.47
2022-10-05T07:33:43.872Z,99642.41
2022-10-05T07:35:24.688Z,99636.31
2022-10-05T07:37:03.640Z,99648.50
2022-10-05T07:38:38.587Z,99644.34
2022-10-05T07:40:15.228Z,99641.31
2022-10-05T07:41:52.821Z,99643.59
2022-10-05T07:43:51.437Z,99647.75
2022-10-05T07:45:46.969Z,99645.84
2022-10-05T07:47:33.516Z,99645.94
2022-10-05T07:49:19.095Z,99647.75
2022-10-05T07:50:58.870Z,99641.66
2022-10-05T07:52:35.032Z,99643.59
2022-10-05T07:54:29.267Z,99645.09
2022-10-05T07:56:08.574Z,99640.56
2022-10-05T07:57:49.492Z,99629.38
2022-10-05T07:59:21.085Z,99649.69
2022-10-05T08:01:06.838Z,99648.19
2022-10-05T08:02:46.776Z,99638.22
2022-10-05T08:04:25.009Z,99638.22
2022-10-05T08:05:56.659Z,99636.31
2022-10-05T08:07:28.685Z,99641.66
2022-10-05T08:09:22.775Z,99643.59
2022-10-05T08:11:05.253Z,99633.63
2022-10-05T08:12:39.545Z,99629.78
2022-10-05T08:14:23.347Z,99627.22
2022-10-05T08:15:57.715Z,99636.31
2022-10-05T08:17:55.813Z,99634.38
2022-10-05T08:19:32.785Z,99620.69
2022-10-05T08:21:04.348Z,99608.06
2022-10-05T08:22:41.704Z,99587.22
2022-10-05T08:24:44.137Z,99576.25
2022-10-05T08:26:27.019Z,99573.47
2022-10-05T08:28:14.472Z,99563.59
2022-10-05T08:30:04.905Z,99562.97
2022-10-05T08:31:37.654Z,99570.03
2022-10-05T08:33:16.735Z,99566.41
2022-10-05T08:34:57.680Z,99546.25
2022-10-05T08:36:50.364Z,99559.41
2022-10-05T08:38:30.395Z,99552.97
2022-10-05T08:40:20.651Z,99553.19
2022-10-05T08:41:55.047Z,99566.97
2022-10-05T08:44:07.871Z,99556.59
2022-10-05T08:45:58.078Z,99558.09
2022-10-05T08:47:41.561Z,99554.22
2022-10-05T08:49:32.860Z,99555.31
2022-10-05T08:51:34.373Z,99538.94
2022-10-05T08:53:30.999Z,99546.53
2022-10-05T08:55:21.761Z,99543.56
2022-10-05T08:57:11.092Z,99544.28
2022-10-05T08:59:10.299Z,99535.53
2022-10-05T09:00:51.695Z,99540.88
2022-10-05T09:02:40.773Z,99540.13
2022-10-05T09:04:40.234Z,99540.88
2022-10-05T09:06:30.010Z,99540.88
2022-10-05T09:08:28.802Z,99546.09
2022-10-05T09:10:06.348Z,99550.34
2022-10-05T09:12:02.349Z,99557.50
2022-10-05T09:14:02.929Z,99558.13
2022-10-05T09:15:53.301Z,99549.97
2022-10-05T09:17:56.247Z,99555.69
2022-10-05T09:19:46.761Z,99559.03
2022-10-05T09:21:35.392Z,99555.03
2022-10-05T09:23:13.321Z,99561.44
2022-10-05T09:25:10.774Z,99558.63
2022-10-05T09:26:52.524Z,99563.84
2022-10-05T09:28:47.998Z,99569.81
2022-10-05T09:30:39.198Z,99574.91
2022-10-05T09:32:16.443Z,99571.69
2022-10-05T09:34:08.788Z,99569.59
2022-10-05T09:35:55.400Z,99584.34
2022-10-05T09:37:36.357Z,99580.38
2022-10-05T09:39:23.038Z,99584.56
2022-10-05T09:41:19.834Z,99585.63
2022-10-05T09:42:57.200Z,99583.56
2022-10-05T09:44:50.659Z,99591.44
2022-10-05T09:46:24.993Z,99586.38
2022-10-05T09:48:33.195Z,99587.13
2022-10-05T09:50:10.432Z,99580.28
2022-10-05T09:52:03.886Z,99579.84
2022-10-05T09:54:29.342Z,99573.34
2022-10-05T09:56:06.878Z,99581.97
2022-10-05T09:58:15.270Z,99583.00
2022-10-05T09:59:58.954Z,99587.47
2022-10-05T10:01:56.508Z,99583.16
2022-10-05T10:04:06.794Z,99591.19
2022-10-05T10:06:00.000Z,99590.03
2022-10-05T10:07:46.311Z,99586.03
2022-10-05T10:09:20.968Z,99580.69
2022-10-05T10:11:20.612Z,99582.91
2022-10-05T10:13:13.736Z,99585.16
2022-10-05T10:15:43.929Z,99565.22
2022-10-05T10:17:37.640Z,99567.16
2022-10-05T10:19:33.540Z,99569.38
2022-10-05T10:21:35.790Z,99574.72
2022-10-05T10:23:14.568Z,99570.88
2022-10-05T10:24:48.985Z,99585.31
2022-10-05T10:26:58.136Z,99576.56
2022-10-05T10:28:51.866Z,99583.25
2022-10-05T10:30:44.330Z,99574.78
2022-10-05T10:32:34.293Z,99580.88
2022-10-05T10:34:27.275Z,99583.56
2022-10-05T10:36:06.135Z,99577.44
2022-10-05T10:38:15.867Z,99581.66
2022-10-05T10:39:53.292Z,99582.81
2022-10-05T10:41:33.737Z,99575.84
2022-10-05T10:43:27.078Z,99578.09
2022-10-05T10:45:35.560Z,99571.84
2022-10-05T10:47:16.055Z,99578.25
2022-10-05T10:49:00.317Z,99577.34
2022-10-05T10:50:56.373Z,99575.41
2022-10-05T10:53:06.233Z,99580.34
2022-10-05T10:54:49.773Z,99574.25
2022-10-05T10:56:44.648Z,99573.50
2022-10-05T10:58:53.585Z,99568.88
2022-10-05T11:00:50.341Z,99565.03
2022-10-05T11:02:52.487Z,99568.75
2022-10-05T11:04:57.999Z,99567.25
2022-10-05T11:06:44.834Z,99563.66
2022-10-05T11:08:35.004Z,99557.47
2022-10-05T11:10:35.502Z,99552.38
2022-10-05T11:12:44.536Z,99556.84
2022-10-05T11:14:37.955Z,99551.50
2022-10-05T11:16:19.718Z,99553.00
2022-10-05T11:18:10.462Z,99557.16
2022-10-05T11:20:03.622Z,99541.81
2022-10-05T11:22:01.823Z,99552.09
2022-10-05T11:23:48.175Z,99554.31
2022-10-05T11:26:01.101Z,99553.88
2022-10-05T11:27:59.459Z,99555.22
2022-10-05T11:30:03.942Z,99544.38
2022-10-05T11:31:57.284Z,99546.91
2022-10-05T11:33:50.883Z,99541.84
2022-10-05T11:35:46.554Z,99541.97
2022-10-05T11:37:39.346Z,99534.69
2022-10-05T11:39:29.529Z,99532.44
2022-10-05T11:41:01.004Z,99530.97
2022-10-05T11:42:44.442Z,99533.34
2022-10-05T11:44:53.321Z,99528.13
2022-10-05T11:46:39.877Z,99526.34
2022-10-05T11:48:33.074Z,99530.66
2022-10-05T11:50:20.562Z,99527.69
2022-10-05T11:52:01.704Z,99525.13
2022-10-05T11:53:39.438Z,99515.03
2022-10-05T11:55:31.111Z,99521.88
2022-10-05T11:57:06.429Z,99524.25
2022-10-05T11:58:37.874Z,99524.25
2022-10-05T12:00:18.466Z,99518.59
2022-10-05T12:01:57.525Z,99521.28
2022-10-05T12:03:38.329Z,99526.63
2022-10-05T12:05:27.244Z,99519.78
2022-10-05T12:07:27.428Z,99512.19
2022-10-05T12:09:03.693Z,99522.91
2022-10-05T12:11:23.101Z,99520.22
2022-10-05T12:13:16.226Z,99528.25
2022-10-05T12:14:56.564Z,99515.19
2022-10-05T12:17:22.308Z,99513.41
2022-10-05T12:19:00.393Z,99514.16
2022-10-05T12:20:36.634Z,99512.66
2022-10-05T12:22:15.124Z,99511.91
2022-10-05T12:23:50.170Z,99513.81
2022-10-05T12:25:34.549Z,99516.97
2022-10-05T12:27:18.691Z,99505.19
2022-10-05T12:28:53.762Z,99511.28
2022-10-05T12:30:25.233Z,99509.09
2022-10-05T12:32:05.707Z,99503.41
2022-10-05T12:33:52.014Z,99506.84
2022-10-05T12:35:47.389Z,99508.00
2022-10-05T12:37:43.936Z,99508.47
2022-10-05T12:39:39.771Z,99503.56
2022-10-05T12:41:27.936Z,99501.72
2022-10-05T12:43:02.061Z,99512.03
2022-10-05T12:44:39.537Z,99499.06
2022-10-05T12:46:32.232Z,99504.13
2022-10-05T12:48:18.656Z,99495.78
2022-10-05T12:49:59.398Z,99502.63
2022-10-05T12:51:38.005Z,99498.31
2022-10-05T12:53:33.744Z,99495.19
2022-10-05T12:55:20.619Z,99493.16
2022-10-05T12:56:59.685Z,99488.38
2022-10-05T12:58:51.165Z,99489.16
2022-10-05T13:00:23.529Z,99477.81
2022-10-05T13:02:36.553Z,99487.66
2022-10-05T13:04:15.855Z,99488.25
2022-10-05T13:06:02.949Z,99488.09
2022-10-05T13:08:16.214Z,99484.06
2022-10-05T13:09:57.615Z,99482.47
2022-10-05T13:11:50.547Z,99480.06
2022-10-05T13:13:46.848Z,99477.41
2022-10-05T13:15:18.340Z,99473.06
2022-10-05T13:16:55.573Z,99470.38
2022-10-05T13:18:54.145Z,99473.81
2022-10-05T13:20:28.640Z,99468.31
2022-10-05T13:22:03.094Z,99474.88
2022-10-05T13:23:51.720Z,99470.84
2022-10-05T13:25:29.452Z,99481.28
2022-10-05T13:27:05.074Z,99480.22
2022-10-05T13:28:43.921Z,99478.56
2022-10-05T13:30:19.440Z,99467.09
2022-10-05T13:31:53.253Z,99464.56
2022-10-05T13:33:29.830Z,99472.88
2022-10-05T13:35:36.582Z,99481.25
2022-10-05T13:37:34.106Z,99477.06
2022-10-05T13:39:08.482Z,99476.78
2022-10-05T13:40:48.595Z,99481.09
2022-10-05T13:42:55.054Z,99481.25
2022-10-05T13:44:32.603Z,99473.91
2022-10-05T13:46:17.492Z,99464.56
2022-10-05T13:47:52.313Z,99475.13
2022-10-05T13:49:42.106Z,99474.66
2022-10-05T13:51:38.625Z,99472.44
2022-10-05T13:53:25.345Z,99477.81
2022-10-05T13:55:05.584Z,99476.78
2022-10-05T13:56:39.506Z,99472.88
2022-10-05T13:58:13.910Z,99474.81
2022-10-05T13:59:55.767Z,99471.88
2022-10-05T14:01:51.643Z,99470.22
2022-10-05T14:03:31.151Z,99471.25
2022-10-05T14:05:21.956Z,99466.63
2022-10-05T14:06:53.586Z,99472.28
2022-10-05T14:08:27.482Z,99465.16
2022-10-05T14:09:59.116Z,99461.09
2022-10-05T14:11:32.668Z,99467.69
2022-10-05T14:13:46.349Z,99462.00
2022-10-05T14:15:22.410Z,99455.91
2022-10-05T14:16:58.674Z,99452.19
2022-10-05T14:18:32.429Z,99460.69
2022-10-05T14:20:23.972Z,99460.97
2022-10-05T14:22:20.361Z,99456.81
2022-10-05T14:23:52.001Z,99457.56
2022-10-05T14:25:23.550Z,99452.19
2022-10-05T14:26:55.892Z,99455.47
2022-10-05T14:28:31.100Z,99456.50
2022-10-05T14:30:21.368Z,99454.13
2022-10-05T14:32:01.351Z,99449.47
2022-10-05T14:33:33.990Z,99449.06
2022-10-05T14:35:13.325Z,99463.03
2022-10-05T14:36:45.033Z,99457.69
2022-10-05T14:38:19.152Z,99463.78
2022-10-05T14:39:52.327Z,99452.03
2022-10-05T14:41:24.351Z,99446.56
2022-10-05T14:42:56.033Z,99458.31
2022-10-05T14:44:29.638Z,99446.09
2022-10-05T14:46:02.772Z,99446.09
2022-10-05T14:47:34.431Z,99445.06
2022-10-05T14:49:23.481Z,99443.56
2022-10-05T14:50:59.768Z,99445.50
2022-10-05T14:52:31.511Z,99449.38
2022-10-05T14:54:22.100Z,99439.84
2022-10-05T14:55:59.564Z,99439.56
2022-10-05T14:57:45.470Z,99441.03
2022-10-05T14:59:25.915Z,99439.72
2022-10-05T15:01:03.491Z,99433.63
2022-10-05T15:02:58.058Z,99441.66
2022-10-05T15:04:32.533Z,99441.34
2022-10-05T15:06:04.298Z,99436.00
2022-10-05T15:07:39.472Z,99437.94
2022-10-05T15:09:33.018Z,99428.84
2022-10-05T15:11:27.808Z,99439.28
2022-10-05T15:13:10.642Z,99437.06
2022-10-05T15:14:44.240Z,99430.19
2022-10-05T15:16:23.727Z,99429.47
2022-10-05T15:17:58.105Z,99432.59
2022-10-05T15:19:47.498Z,99430.66
2022-10-05T15:21:24.938Z,99433.03
2022-10-05T15:23:07.118Z,99432.31
2022-10-05T15:24:50.290Z,99422.31
2022-10-05T15:26:27.982Z,99437.38
2022-10-05T15:28:05.452Z,99436.63
2022-10-05T15:29:39.784Z,99441.97
2022-10-05T15:31:14.205Z,99433.31
2022-10-05T15:33:02.885Z,99437.22
2022-10-05T15:34:41.325Z,99438.66
2022-10-05T15:36:19.571Z,99440.63
2022-10-05T15:38:04.856Z,99427.22
2022-10-05T15:39:40.636Z,99430.34
2022-10-05T15:41:15.822Z,99436.47
2022-10-05T15:42:47.444Z,99437.63
2022-10-05T15:44:43.574Z,99433.19
2022-10-05T15:46:39.286Z,99434.38
2022-10-05T15:48:36.348Z,99443.31
2022-10-05T15:50:23.915Z,99436.16
2022-10-05T15:52:13.812Z,99436.63
2022-10-05T15:54:16.063Z,99436.16
2022-10-05T15:55:53.298Z,99434.09
2022-10-05T15:57:43.152Z,99438.25
2022-10-05T15:59:38.547Z,99430.66
2022-10-05T16:01:15.432Z,99438.97
2022-10-05T16:03:21.936Z,99440.47
2022-10-05T16:05:12.958Z,99439.44
2022-10-05T16:06:49.655Z,99441.66
2022-10-05T16:08:36.820Z,99447.31
2022-10-05T16:10:21.746Z,99443.31
2022-10-05T16:12:02.069Z,99443.91
2022-10-05T16:13:45.428Z,99435.88
2022-10-05T16:15:23.079Z,99440.63
2022-10-05T16:17:33.271Z,99437.50
2022-10-05T16:19:38.594Z,99447.34
2022-10-05T16:21:27.914Z,99451.19
2022-10-05T16:23:26.828Z,99448.94
2022-10-05T16:25:12.747Z,99453.88
2022-10-05T16:26:54.128Z,99453.56
2022-10-05T16:28:48.255Z,99456.25
2022-10-05T16:30:20.873Z,99454.94
2022-10-05T16:32:07.326Z,99451.06
2022-10-05T16:34:03.765Z,99454.78
2022-10-05T16:36:01.709Z,99462.06
2022-10-05T16:37:55.430Z,99464.00
2022-10-05T16:39:32.579Z,99471.28
2022-10-05T16:41:22.374Z,99469.06
2022-10-05T16:43:21.662Z,99470.25
2022-10-05T16:44:59.988Z,99470.09
2022-10-05T16:46:45.745Z,99474.72
2022-10-05T16:48:29.693Z,99477.38
2022-10-05T16:50:13.357Z,99483.03
2022-10-05T16:51:51.977Z,99486.19
2022-10-05T16:53:38.640Z,99486.19
2022-10-05T16:55:12.829Z,99479.59
2022-10-05T16:56:50.532Z,99487.34
2022-10-05T16:58:25.056Z,99485.88
2022-10-05T17:00:25.149Z,99485.56
2022-10-05T17:02:02.597Z,99487.19
2022-10-05T17:04:06.334Z,99488.41
2022-10-05T17:05:56.906Z,99486.63
2022-10-05T17:07:52.796Z,99492.88
2022-10-05T17:10:06.252Z,99495.69
2022-10-05T17:11:48.513Z,99489.75
2022-10-05T17:13:46.733Z,99492.88
2022-10-05T17:15:25.674Z,99499.84
2022-10-05T17:17:15.889Z,99497.63
2022-10-05T17:19:04.873Z,99503.88
2022-10-05T17:20:42.623Z,99507.00
2022-10-05T17:22:32.802Z,99508.94
2022-10-05T17:24:47.869Z,99509.78
2022-10-05T17:26:39.598Z,99507.59
2022-10-05T17:28:38.545Z,99501.19
2022-10-05T17:30:51.348Z,99505.78
2022-10-05T17:32:22.921Z,99502.06
2022-10-05T17:34:15.841Z,99504.72
2022-10-05T17:36:00.161Z,99505.16
2022-10-05T17:37:44.890Z,99509.03
2022-10-05T17:39:18.186Z,99505.59
2022-10-05T17:41:17.172Z,99502.16
2022-10-05T17:42:48.810Z,99507.97
2022-10-05T17:44:22.089Z,99507.97
2022-10-05T17:45:55.906Z,99513.78
2022-10-05T17:48:01.828Z,99513.03
2022-10-05T17:50:12.102Z,99510.06
2022-10-05T17:51:43.636Z,99507.81
2022-10-05T17:53:23.124Z,99510.94
2022-10-05T17:54:55.703Z,99509.16
2022-10-05T17:56:27.379Z,99516.72
2022-10-05T17:58:00.783Z,99511.38
2022-10-05T17:59:53.849Z,99512.59
2022-10-05T18:01:29.468Z,99508.84
